createdAt,value
2023-05-10T00:01:50.819Z,52.87
2023-05-10T00:04:17.845Z,51.87
2023-05-10T00:06:44.917Z,51.09
2023-05-10T00:09:11.897Z,51.81
2023-05-10T00:11:38.889Z,52.31
2023-05-10T00:14:05.978Z,52.46
2023-05-10T00:16:33.061Z,53.05
2023-05-10T00:19:00.124Z,55.26
2023-05-10T00:21:27.716Z,54.68
2023-05-10T00:23:54.708Z,54.95
2023-05-10T00:26:22.255Z,55.27
2023-05-10T00:28:52.718Z,54.86
2023-05-10T00:31:19.842Z,54.89
2023-05-10T00:33:46.791Z,55.09
2023-05-10T00:36:14.105Z,55.46
2023-05-10T00:38:42.063Z,55.34
2023-05-10T00:41:09.526Z,55.48
2023-05-10T00:43:38.567Z,54.75
2023-05-10T00:46:05.946Z,55.50
2023-05-10T00:48:32.978Z,55.43
2023-05-10T00:51:00.059Z,55.95
2023-05-10T00:53:27.044Z,55.34
2023-05-10T00:55:54.152Z,55.88
2023-05-10T00:58:21.375Z,54.90
2023-05-10T01:00:49.550Z,55.97
2023-05-10T01:03:16.531Z,55.46
2023-05-10T01:05:43.846Z,55.84
2023-05-10T01:08:10.815Z,56.50
2023-05-10T01:10:37.804Z,56.34
2023-05-10T01:13:04.846Z,55.96
2023-05-10T01:15:32.074Z,56.59
2023-05-10T01:17:59.153Z,57.25
2023-05-10T01:20:26.436Z,56.59
2023-05-10T01:23:23.938Z,56.21
2023-05-10T01:26:09.143Z,55.74
2023-05-10T01:29:10.060Z,56.27
2023-05-10T01:31:36.966Z,56.34
2023-05-10T01:34:08.524Z,56.64
2023-05-10T01:36:46.882Z,55.87
2023-05-10T01:39:29.142Z,56.05
2023-05-10T01:41:59.794Z,56.09
2023-05-10T01:44:40.488Z,55.96
2023-05-10T01:47:11.292Z,56.27
2023-05-10T01:49:39.992Z,56.12
2023-05-10T01:52:12.045Z,56.91
2023-05-10T01:54:44.234Z,56.62
2023-05-10T01:57:13.196Z,56.37
2023-05-10T01:59:43.042Z,55.72
2023-05-10T02:02:12.929Z,56.24
2023-05-10T02:04:40.835Z,57.21
2023-05-10T02:07:08.059Z,58.00
2023-05-10T02:09:35.074Z,58.07
2023-05-10T02:12:03.658Z,57.38
2023-05-10T02:14:35.320Z,56.57
2023-05-10T02:17:03.409Z,56.93
2023-05-10T02:19:30.467Z,56.67
2023-05-10T02:21:58.505Z,57.88
2023-05-10T02:24:26.502Z,57.34
2023-05-10T02:26:55.253Z,57.76
2023-05-10T02:29:24.301Z,57.26
2023-05-10T02:31:52.757Z,57.07
2023-05-10T02:34:19.908Z,57.51
2023-05-10T02:36:47.278Z,57.17
2023-05-10T02:39:14.656Z,56.92
2023-05-10T02:41:42.466Z,57.80
2023-05-10T02:44:10.170Z,56.92
2023-05-10T02:46:38.653Z,57.20
2023-05-10T02:49:05.797Z,57.45
2023-05-10T02:51:34.719Z,56.61
2023-05-10T02:54:05.109Z,56.12
2023-05-10T02:56:36.140Z,56.32
2023-05-10T02:59:03.186Z,55.71
2023-05-10T03:01:30.545Z,55.38
2023-05-10T03:03:58.634Z,55.32
2023-05-10T03:06:25.882Z,55.26
2023-05-10T03:08:52.864Z,56.12
2023-05-10T03:11:26.222Z,55.66
2023-05-10T03:14:32.198Z,55.27
2023-05-10T03:17:32.223Z,55.58
2023-05-10T03:20:03.428Z,55.27
2023-05-10T03:22:37.458Z,55.39
2023-05-10T03:25:09.453Z,55.00
2023-05-10T03:27:36.879Z,55.65
2023-05-10T03:30:04.374Z,55.38
2023-05-10T03:32:35.453Z,55.83
2023-05-10T03:35:07.335Z,56.00
2023-05-10T03:37:34.365Z,56.81
2023-05-10T03:40:01.407Z,56.29
2023-05-10T03:42:30.616Z,57.23
2023-05-10T03:44:57.702Z,57.59
2023-05-10T03:47:25.564Z,57.08
2023-05-10T03:49:52.973Z,56.54
2023-05-10T03:52:20.145Z,57.48
2023-05-10T03:54:47.173Z,58.24
2023-05-10T03:57:14.168Z,58.44
2023-05-10T03:59:41.358Z,58.39
2023-05-10T04:02:08.392Z,58.39
2023-05-10T04:04:36.899Z,59.97
2023-05-10T04:07:03.977Z,58.92
2023-05-10T04:09:31.044Z,57.73
2023-05-10T04:11:58.067Z,58.09
2023-05-10T04:14:25.069Z,58.08
2023-05-10T04:16:52.350Z,57.81
2023-05-10T04:19:19.396Z,57.63
2023-05-10T04:21:46.471Z,57.62
2023-05-10T04:24:13.613Z,57.66
2023-05-10T04:26:40.620Z,60.68
2023-05-10T04:29:07.730Z,61.97
2023-05-10T04:31:35.310Z,61.91
2023-05-10T04:34:02.316Z,61.18
2023-05-10T04:36:29.868Z,62.50
2023-05-10T04:38:56.927Z,62.53
2023-05-10T04:41:23.995Z,64.19
2023-05-10T04:43:51.210Z,63.16
2023-05-10T04:46:18.430Z,64.07
2023-05-10T04:48:45.581Z,63.08
2023-05-10T04:51:12.757Z,61.86
2023-05-10T04:53:39.871Z,62.10
2023-05-10T04:56:07.281Z,61.27
2023-05-10T04:58:34.693Z,62.54
2023-05-10T05:01:11.653Z,60.96
2023-05-10T05:03:38.613Z,60.76
2023-05-10T05:06:05.933Z,62.60
2023-05-10T05:08:33.134Z,61.60
2023-05-10T05:11:00.533Z,61.67
2023-05-10T05:13:27.791Z,64.57
2023-05-10T05:15:55.618Z,64.53
2023-05-10T05:18:22.742Z,64.16
2023-05-10T05:20:49.690Z,63.55
2023-05-10T05:23:16.754Z,64.37
2023-05-10T05:25:43.672Z,64.17
2023-05-10T05:28:10.769Z,63.93
2023-05-10T05:30:37.945Z,63.53
2023-05-10T05:33:05.269Z,64.98
2023-05-10T05:35:32.367Z,61.82
2023-05-10T05:37:59.387Z,61.80
2023-05-10T05:40:26.451Z,62.61
2023-05-10T05:42:53.486Z,62.14
2023-05-10T05:45:20.684Z,62.16
2023-05-10T05:47:48.276Z,61.96
2023-05-10T05:50:15.591Z,62.20
2023-05-10T05:52:42.615Z,63.28
2023-05-10T05:55:09.658Z,61.39
2023-05-10T05:57:36.706Z,61.76
2023-05-10T06:00:04.159Z,64.13
2023-05-10T06:02:39.801Z,64.69
2023-05-10T06:05:07.686Z,63.26
2023-05-10T06:07:34.698Z,62.17
2023-05-10T06:10:01.989Z,60.85
2023-05-10T06:12:29.170Z,63.58
2023-05-10T06:14:56.121Z,62.37
2023-05-10T06:17:23.506Z,62.32
2023-05-10T06:19:50.608Z,63.30
2023-05-10T06:22:17.646Z,62.54
2023-05-10T06:24:44.683Z,63.21
2023-05-10T06:27:11.672Z,64.83
2023-05-10T06:29:38.635Z,65.21
2023-05-10T06:32:05.586Z,65.29
2023-05-10T06:34:32.704Z,64.97
2023-05-10T06:36:59.774Z,63.79
2023-05-10T06:39:26.752Z,63.71
2023-05-10T06:41:53.725Z,66.34
2023-05-10T06:44:20.781Z,65.09
2023-05-10T06:46:48.016Z,64.64
2023-05-10T06:49:15.057Z,64.96
2023-05-10T06:51:42.016Z,62.99
2023-05-10T06:54:08.946Z,62.85
2023-05-10T06:56:36.444Z,62.66
2023-05-10T06:59:03.997Z,62.57
2023-05-10T07:01:31.148Z,61.80
2023-05-10T07:03:58.111Z,61.24
2023-05-10T07:06:32.752Z,60.74
2023-05-10T07:09:01.461Z,63.72
2023-05-10T07:11:28.479Z,61.08
2023-05-10T07:13:55.503Z,60.65
2023-05-10T07:16:22.925Z,60.78
2023-05-10T07:18:51.462Z,60.18
2023-05-10T07:21:18.463Z,59.59
2023-05-10T07:23:45.489Z,61.61
2023-05-10T07:26:12.733Z,59.30
2023-05-10T07:28:40.172Z,62.72
2023-05-10T07:31:07.206Z,62.08
2023-05-10T07:33:34.239Z,60.11
2023-05-10T07:36:01.532Z,59.20
2023-05-10T07:38:28.588Z,59.13
2023-05-10T07:40:55.792Z,58.43
2023-05-10T07:43:22.837Z,60.32
2023-05-10T07:45:49.791Z,58.39
2023-05-10T07:48:16.809Z,58.48
2023-05-10T07:50:43.763Z,58.37
2023-05-10T07:53:11.003Z,57.13
2023-05-10T07:55:37.950Z,58.23
2023-05-10T07:58:05.080Z,58.49
2023-05-10T08:00:32.227Z,60.35
2023-05-10T08:02:59.357Z,57.02
2023-05-10T08:05:26.571Z,56.45
2023-05-10T08:07:53.549Z,55.67
2023-05-10T08:10:20.557Z,57.20
2023-05-10T08:12:47.538Z,56.39
2023-05-10T08:15:14.661Z,55.17
2023-05-10T08:17:42.074Z,54.50
2023-05-10T08:20:09.440Z,54.30
2023-05-10T08:22:36.831Z,54.71
2023-05-10T08:25:05.064Z,53.38
2023-05-10T08:27:33.094Z,53.79
2023-05-10T08:30:00.154Z,52.56
2023-05-10T08:32:27.238Z,52.36
2023-05-10T08:34:54.242Z,52.05
2023-05-10T08:37:21.240Z,51.83
2023-05-10T08:39:49.031Z,53.51
2023-05-10T08:42:17.938Z,53.61
2023-05-10T08:44:44.942Z,53.47
2023-05-10T08:47:12.056Z,54.89
2023-05-10T08:49:39.300Z,54.88
2023-05-10T08:52:06.644Z,55.01
2023-05-10T08:54:34.260Z,56.09
2023-05-10T08:57:01.340Z,56.51
2023-05-10T08:59:28.580Z,57.75
2023-05-10T09:01:56.643Z,58.35
2023-05-10T09:04:23.684Z,59.63
2023-05-10T09:06:50.720Z,59.79
2023-05-10T09:09:18.656Z,58.20
2023-05-10T09:11:46.067Z,59.99
2023-05-10T09:14:13.559Z,58.38
2023-05-10T09:16:41.166Z,57.43
2023-05-10T09:19:09.712Z,58.79
2023-05-10T09:21:39.275Z,56.85
2023-05-10T09:24:07.332Z,56.22
2023-05-10T09:26:34.679Z,55.70
2023-05-10T09:29:02.346Z,55.03
2023-05-10T09:32:04.770Z,55.46
2023-05-10T09:34:33.065Z,54.05
2023-05-10T09:37:04.508Z,55.05
2023-05-10T09:39:35.660Z,56.23
2023-05-10T09:42:06.470Z,56.06
2023-05-10T09:44:33.904Z,57.19
2023-05-10T09:47:02.000Z,57.99
2023-05-10T09:49:29.108Z,54.84
2023-05-10T09:52:06.227Z,55.20
2023-05-10T09:54:33.634Z,54.14
2023-05-10T09:57:00.851Z,51.34
2023-05-10T09:59:28.480Z,50.29
2023-05-10T10:02:04.523Z,52.60
2023-05-10T10:04:31.780Z,52.49
2023-05-10T10:07:05.536Z,50.78
2023-05-10T10:09:32.979Z,50.00
2023-05-10T10:12:03.433Z,49.92
2023-05-10T10:14:30.672Z,51.17
2023-05-10T10:17:07.320Z,50.17
2023-05-10T10:19:36.893Z,51.06
2023-05-10T10:22:04.335Z,54.16
2023-05-10T10:24:31.424Z,51.86
2023-05-10T10:27:05.401Z,52.48
2023-05-10T10:29:45.568Z,52.94
2023-05-10T10:32:29.044Z,51.74
2023-05-10T10:34:56.245Z,53.36
2023-05-10T10:37:23.307Z,51.43
2023-05-10T10:39:51.458Z,52.48
2023-05-10T10:42:47.980Z,50.57
2023-05-10T10:45:15.155Z,49.55
2023-05-10T10:47:44.249Z,49.90
2023-05-10T10:50:13.904Z,47.88
2023-05-10T10:52:41.810Z,46.66
2023-05-10T10:55:19.951Z,49.33
2023-05-10T10:57:48.225Z,47.70
2023-05-10T11:00:34.119Z,46.04
2023-05-10T11:03:14.598Z,45.82
2023-05-10T11:05:48.362Z,48.42
2023-05-10T11:08:34.958Z,49.01
2023-05-10T11:11:10.208Z,48.55
2023-05-10T11:13:41.932Z,47.31
2023-05-10T11:16:12.723Z,46.03
2023-05-10T11:18:39.850Z,47.94
2023-05-10T11:21:07.379Z,46.30
2023-05-10T11:23:49.567Z,48.01
2023-05-10T11:26:16.532Z,47.54
2023-05-10T11:28:47.356Z,47.11
2023-05-10T11:31:15.188Z,46.85
2023-05-10T11:33:45.352Z,47.39
2023-05-10T11:36:13.699Z,46.81
2023-05-10T11:38:40.792Z,49.64
2023-05-10T11:41:12.613Z,49.06
2023-05-10T11:43:40.123Z,47.74
2023-05-10T11:46:12.186Z,47.23
2023-05-10T11:48:43.027Z,47.47
2023-05-10T11:51:09.897Z,45.78
2023-05-10T11:53:36.818Z,46.24
2023-05-10T11:56:06.781Z,47.02
2023-05-10T11:58:34.007Z,47.63
2023-05-10T12:01:01.262Z,47.30
2023-05-10T12:03:29.019Z,48.46
2023-05-10T12:05:56.486Z,47.86
2023-05-10T12:08:27.232Z,47.67
2023-05-10T12:10:54.613Z,45.80
2023-05-10T12:13:22.143Z,45.57
2023-05-10T12:15:49.169Z,45.31
2023-05-10T12:18:16.388Z,45.70
2023-05-10T12:20:43.880Z,47.27
2023-05-10T12:23:11.120Z,47.37
2023-05-10T12:25:38.473Z,48.27
2023-05-10T12:28:06.979Z,49.23
2023-05-10T12:30:34.723Z,50.21
2023-05-10T12:33:11.771Z,53.44
2023-05-10T12:35:45.513Z,51.97
2023-05-10T12:38:33.639Z,51.96
2023-05-10T12:41:01.570Z,51.72
2023-05-10T12:43:28.728Z,52.79
2023-05-10T12:45:56.093Z,51.20
2023-05-10T12:48:23.173Z,51.23
2023-05-10T12:50:50.217Z,50.85
2023-05-10T12:53:17.662Z,52.10
2023-05-10T12:55:45.017Z,50.20
2023-05-10T12:58:15.757Z,49.48
2023-05-10T13:00:48.191Z,47.76
2023-05-10T13:03:16.697Z,50.99
2023-05-10T13:05:44.335Z,49.09
2023-05-10T13:08:11.590Z,48.88
2023-05-10T13:10:38.593Z,48.63
2023-05-10T13:13:06.340Z,50.16
2023-05-10T13:15:33.325Z,48.09
2023-05-10T13:18:01.246Z,49.38
2023-05-10T13:20:28.411Z,50.69
2023-05-10T13:22:55.598Z,48.83
2023-05-10T13:25:22.566Z,47.77
2023-05-10T13:27:49.507Z,46.48
2023-05-10T13:30:16.649Z,47.17
2023-05-10T13:32:43.770Z,46.70
2023-05-10T13:35:10.881Z,46.53
2023-05-10T13:37:39.091Z,46.56
2023-05-10T13:40:07.209Z,49.76
2023-05-10T13:42:34.574Z,48.13
2023-05-10T13:45:04.863Z,48.50
2023-05-10T13:47:33.300Z,48.53
2023-05-10T13:50:00.294Z,50.61
2023-05-10T13:52:27.595Z,51.27
2023-05-10T13:54:56.303Z,54.65
2023-05-10T13:57:24.174Z,52.26
2023-05-10T13:59:51.423Z,52.85
2023-05-10T14:02:18.336Z,50.98
2023-05-10T14:04:45.427Z,49.90
2023-05-10T14:07:12.454Z,50.18
2023-05-10T14:09:39.508Z,53.62
2023-05-10T14:12:06.550Z,53.87
2023-05-10T14:14:33.495Z,52.55
2023-05-10T14:17:01.244Z,51.10
2023-05-10T14:19:28.865Z,52.08
2023-05-10T14:21:55.887Z,51.00
2023-05-10T14:24:22.883Z,51.59
2023-05-10T14:26:49.901Z,53.27
2023-05-10T14:29:16.852Z,55.06
2023-05-10T14:31:43.819Z,58.57
2023-05-10T14:34:11.051Z,58.67
2023-05-10T14:36:37.982Z,57.96
2023-05-10T14:39:05.184Z,57.66
2023-05-10T14:41:32.150Z,57.05
2023-05-10T14:43:59.177Z,56.59
2023-05-10T14:46:26.332Z,59.71
2023-05-10T14:48:53.445Z,59.61
2023-05-10T14:51:22.855Z,59.27
2023-05-10T14:53:50.562Z,57.94
2023-05-10T14:56:17.647Z,56.65
2023-05-10T14:58:44.676Z,55.88
2023-05-10T15:01:11.983Z,55.87
2023-05-10T15:03:39.543Z,56.07
2023-05-10T15:06:07.176Z,55.62
2023-05-10T15:08:34.198Z,55.18
2023-05-10T15:11:01.259Z,55.83
2023-05-10T15:13:28.304Z,53.32
2023-05-10T15:15:55.853Z,52.56
2023-05-10T15:18:25.359Z,51.68
2023-05-10T15:20:52.442Z,51.58
2023-05-10T15:23:19.484Z,52.33
2023-05-10T15:25:46.526Z,52.47
2023-05-10T15:28:14.052Z,51.27
2023-05-10T15:30:41.057Z,51.51
2023-05-10T15:33:08.784Z,51.54
2023-05-10T15:35:36.861Z,51.97
2023-05-10T15:38:03.848Z,51.94
2023-05-10T15:40:30.888Z,51.34
2023-05-10T15:42:58.405Z,52.44
2023-05-10T15:45:25.721Z,52.34
2023-05-10T15:47:52.904Z,51.88
2023-05-10T15:50:19.961Z,51.64
2023-05-10T15:52:47.020Z,53.19
2023-05-10T15:55:14.431Z,53.85
2023-05-10T15:57:42.678Z,54.10
2023-05-10T16:00:10.480Z,54.80
2023-05-10T16:02:41.174Z,54.15
2023-05-10T16:05:09.675Z,54.10
2023-05-10T16:07:36.619Z,52.74
2023-05-10T16:10:06.526Z,53.78
2023-05-10T16:12:33.671Z,52.94
2023-05-10T16:15:00.723Z,53.41
2023-05-10T16:17:27.778Z,53.04
2023-05-10T16:19:55.142Z,53.77
2023-05-10T16:22:22.500Z,53.55
2023-05-10T16:24:49.608Z,53.70
2023-05-10T16:27:17.520Z,54.04
2023-05-10T16:29:44.559Z,54.16
2023-05-10T16:32:11.725Z,54.18
2023-05-10T16:34:38.776Z,56.08
2023-05-10T16:37:05.822Z,57.16
2023-05-10T16:39:32.847Z,59.49
2023-05-10T16:41:59.948Z,57.92
2023-05-10T16:44:27.055Z,58.10
2023-05-10T16:46:54.980Z,58.06
2023-05-10T16:49:23.761Z,58.44
2023-05-10T16:51:52.889Z,60.29
2023-05-10T16:54:21.429Z,58.84
2023-05-10T16:56:48.436Z,58.27
2023-05-10T16:59:16.414Z,58.32
2023-05-10T17:01:43.649Z,57.51
2023-05-10T17:04:10.749Z,56.32
2023-05-10T17:06:37.849Z,55.54
2023-05-10T17:09:05.802Z,56.65
2023-05-10T17:11:32.907Z,57.04
2023-05-10T17:14:01.444Z,56.49
2023-05-10T17:16:29.681Z,58.90
2023-05-10T17:18:56.896Z,57.66
2023-05-10T17:21:23.914Z,57.10
2023-05-10T17:23:50.957Z,56.30
2023-05-10T17:26:17.944Z,57.67
2023-05-10T17:28:45.241Z,57.57
2023-05-10T17:31:12.266Z,57.94
2023-05-10T17:33:39.449Z,58.20
2023-05-10T17:36:06.684Z,56.96
2023-05-10T17:38:33.709Z,57.47
2023-05-10T17:41:00.762Z,57.65
2023-05-10T17:43:27.808Z,58.63
2023-05-10T17:45:54.768Z,58.16
2023-05-10T17:48:22.130Z,57.83
2023-05-10T17:50:52.606Z,57.61
2023-05-10T17:53:19.636Z,57.13
2023-05-10T17:55:47.064Z,57.50
2023-05-10T17:58:14.175Z,58.25
2023-05-10T18:00:41.319Z,57.11
2023-05-10T18:03:08.836Z,56.71
2023-05-10T18:05:37.489Z,57.05
2023-05-10T18:08:05.391Z,56.01
2023-05-10T18:10:32.629Z,57.05
2023-05-10T18:13:00.720Z,58.35
2023-05-10T18:15:28.119Z,58.50
2023-05-10T18:17:56.750Z,57.52
2023-05-10T18:20:24.042Z,57.25
2023-05-10T18:22:51.391Z,56.44
2023-05-10T18:25:19.207Z,57.04
2023-05-10T18:27:46.824Z,58.56
2023-05-10T18:30:14.544Z,57.84
2023-05-10T18:32:41.867Z,57.44
2023-05-10T18:35:09.436Z,57.98
2023-05-10T18:37:36.662Z,58.79
2023-05-10T18:40:05.123Z,59.43
2023-05-10T18:42:32.801Z,58.91
2023-05-10T18:44:59.844Z,58.38
2023-05-10T18:47:27.658Z,57.98
2023-05-10T18:49:55.430Z,58.47
2023-05-10T18:52:22.983Z,59.40
2023-05-10T18:54:50.588Z,58.50
2023-05-10T18:57:18.159Z,57.90
2023-05-10T18:59:45.618Z,57.28
2023-05-10T19:02:13.866Z,57.39
2023-05-10T19:04:41.088Z,56.74
2023-05-10T19:07:09.898Z,55.55
2023-05-10T19:09:37.315Z,55.53
2023-05-10T19:12:04.521Z,56.83
2023-05-10T19:14:31.753Z,57.09
2023-05-10T19:17:00.321Z,57.34
2023-05-10T19:19:30.549Z,57.46
2023-05-10T19:21:58.540Z,59.49
2023-05-10T19:24:27.458Z,58.30
2023-05-10T19:26:56.802Z,57.67
2023-05-10T19:29:25.598Z,57.05
2023-05-10T19:31:53.898Z,57.74
2023-05-10T19:34:21.322Z,57.15
2023-05-10T19:36:48.675Z,59.14
2023-05-10T19:39:15.791Z,58.42
2023-05-10T19:41:42.990Z,61.41
2023-05-10T19:44:10.315Z,59.23
2023-05-10T19:46:37.436Z,59.13
2023-05-10T19:49:04.565Z,59.83
2023-05-10T19:51:31.676Z,57.55
2023-05-10T19:53:58.784Z,59.49
2023-05-10T19:56:27.039Z,57.56
2023-05-10T19:58:54.167Z,57.02
2023-05-10T20:01:21.359Z,57.86
2023-05-10T20:03:48.458Z,58.84
2023-05-10T20:06:15.775Z,57.10
2023-05-10T20:08:43.008Z,57.13
2023-05-10T20:11:10.250Z,57.93
2023-05-10T20:13:37.341Z,57.00
2023-05-10T20:16:06.175Z,57.05
2023-05-10T20:18:33.633Z,56.97
2023-05-10T20:21:00.840Z,58.02
2023-05-10T20:23:27.982Z,57.02
2023-05-10T20:25:55.260Z,58.70
2023-05-10T20:28:23.767Z,58.98
2023-05-10T20:30:53.136Z,58.23
2023-05-10T20:33:21.570Z,58.03
2023-05-10T20:35:50.227Z,58.23
2023-05-10T20:38:18.227Z,58.25
2023-05-10T20:40:45.687Z,58.51
2023-05-10T20:43:12.958Z,58.34
2023-05-10T20:45:40.051Z,57.41
2023-05-10T20:48:07.831Z,57.86
2023-05-10T20:50:35.171Z,56.62
2023-05-10T20:53:02.203Z,56.85
2023-05-10T20:55:29.310Z,57.88
2023-05-10T20:57:56.363Z,62.25
2023-05-10T21:00:23.609Z,59.42
2023-05-10T21:02:50.810Z,57.36
2023-05-10T21:05:18.443Z,57.89
2023-05-10T21:07:45.485Z,57.06
2023-05-10T21:10:12.779Z,56.44
2023-05-10T21:12:39.770Z,56.64
2023-05-10T21:15:07.621Z,55.64
2023-05-10T21:17:34.698Z,56.03
2023-05-10T21:20:01.763Z,56.06
2023-05-10T21:22:28.768Z,55.55
2023-05-10T21:24:55.794Z,57.24
2023-05-10T21:27:22.945Z,57.32
2023-05-10T21:29:50.100Z,56.76
2023-05-10T21:32:17.133Z,57.72
2023-05-10T21:34:44.208Z,57.01
2023-05-10T21:37:11.231Z,56.10
2023-05-10T21:39:38.365Z,56.36
2023-05-10T21:42:05.451Z,55.97
2023-05-10T21:44:32.626Z,55.84
2023-05-10T21:46:59.641Z,56.61
2023-05-10T21:49:27.054Z,56.96
2023-05-10T21:51:54.033Z,56.00
2023-05-10T21:54:21.077Z,55.13
2023-05-10T21:56:48.616Z,55.04
2023-05-10T21:59:15.646Z,56.02
2023-05-10T22:01:43.957Z,56.27
2023-05-10T22:04:11.367Z,56.20
2023-05-10T22:06:38.326Z,55.93
2023-05-10T22:09:05.354Z,56.44
2023-05-10T22:11:32.433Z,55.41
2023-05-10T22:13:59.471Z,55.87
2023-05-10T22:16:26.673Z,55.93
2023-05-10T22:18:54.610Z,54.86
2023-05-10T22:21:21.815Z,57.13
2023-05-10T22:23:48.804Z,58.58
2023-05-10T22:26:15.745Z,58.63
2023-05-10T22:28:42.785Z,57.27
2023-05-10T22:31:11.523Z,56.08
2023-05-10T22:33:38.814Z,56.81
2023-05-10T22:36:06.377Z,56.76
2023-05-10T22:38:33.362Z,57.09
2023-05-10T22:41:00.740Z,57.10
2023-05-10T22:43:27.698Z,57.17
2023-05-10T22:45:54.657Z,57.13
2023-05-10T22:48:22.152Z,57.68
2023-05-10T22:50:49.100Z,56.69
2023-05-10T22:53:16.410Z,56.57
2023-05-10T22:55:43.452Z,55.74
2023-05-10T22:58:10.597Z,55.64
2023-05-10T23:00:37.964Z,56.74
2023-05-10T23:03:05.507Z,55.82
2023-05-10T23:05:32.653Z,55.54
2023-05-10T23:07:59.604Z,55.49
2023-05-10T23:10:26.940Z,55.35
2023-05-10T23:12:55.650Z,55.16
2023-05-10T23:15:22.848Z,56.68
2023-05-10T23:17:49.916Z,57.29
2023-05-10T23:20:17.212Z,58.75
2023-05-10T23:22:45.024Z,57.84
2023-05-10T23:25:12.092Z,56.53
2023-05-10T23:27:39.510Z,56.80
2023-05-10T23:30:07.245Z,56.64
2023-05-10T23:32:34.325Z,56.95
2023-05-10T23:35:01.301Z,56.66
2023-05-10T23:37:28.387Z,56.39
2023-05-10T23:39:55.440Z,56.33
2023-05-10T23:42:22.477Z,56.33
2023-05-10T23:44:50.981Z,56.36
2023-05-10T23:47:18.076Z,56.61
2023-05-10T23:49:45.168Z,55.91
2023-05-10T23:52:12.243Z,56.94
2023-05-10T23:54:39.401Z,56.54
2023-05-10T23:57:06.389Z,56.96
2023-05-10T23:59:33.354Z,57.65
